Norfolk Ns (Chambers Fld) Airport
KNGU : now visible

Airfield :











YOU CAN JOIN US ON...

 
LOGIN :

Register | Disclaimer

   EN    FR    IT 

 









Legend :    VFR   Marginal VFR   IFR   Intensive IFR   Very Intensive IFR
Visi :
Ceiling :
>= 8 km
>= 3000ft
5 to 8 km
1000 to 3000 ft
1500m to 5 km
500 to 1000 ft
800 to 1500m
200 to 500 ft
< 800m
< 200 ft
Symbols :   Thunderstorms  Fog  Heavy snow  Heavy precipitations  Wind > 20 kt







- Airport Elevation : 17 ft


KNGU - Norfolk Ns (Chambers Fld)

CURRENT METAR :
  • 220659Z 21004KT 10SM FEW070 28/23 A2993 RMK AO2 SLP134 T02780233 $

EXPIRED METARs :
  • 220559Z 21004KT 10SM FEW070 28/24 A2993 RMK AO2 SLP134 T02780239 10339 20278 55001 $
  • 220459Z 26005KT 10SM CLR 29/23 A2993 RMK AO2 SLP133 T02940233 403610267 $

TAF TAF KNGU
Valid from the 22 at 07:00 until the 23 at 07:00 UTC


2207/2307 22010G16KT 9999 FEW040 SCT250 QNH2983INS
BECMG 2211/2213 23013G18KT 9999 SCT050 BKN250 QNH2980INS
BECMG 2216/2218 23015G22KT 9999 SCT030 SCT050 BKN250 QNH2980INS
BECMG 2218/2220 24017G24KT 9999 VCSH SCT020 BKN035 OVC060 QNH2979INS
FM222200 2401724KT 9999 VCTS BKN020CB BKN035 OVC060 QNH2978INS
TEMPO 2222/2304 VRB20G30KT 1600 TSRA BKN015CB BKN030 OVC050 QNH2979INS T27/2209Z T36/2218Z FN00182
KZDC FIR / North America



MET'MAP, your aeronautical weather chart ! - Copyright ORBIFLY December 2007 - Disclaimer

ORBIFLY MET'MAP TEAM :

Programming & Development : Alexandra Zaïnal
Concept & Development : Baudouin d'Aumeries
Co-Development & Prog : Marc-Olivier Méhu
Technical & hardware support : Manuel Goepfert

Contact : metmap@orbifly.com




SOURCES & CREDITS :

   NOAA       Earth
Advisory